createdAt,value
2022-08-02T00:00:26.989Z,5.40
2022-08-02T00:01:27.015Z,5.70
2022-08-02T00:02:26.962Z,5.40
2022-08-02T00:03:26.939Z,5.60
2022-08-02T00:04:26.942Z,5.30
2022-08-02T00:05:26.928Z,5.90
2022-08-02T00:06:26.906Z,5.70
2022-08-02T00:07:26.916Z,5.50
2022-08-02T00:08:26.896Z,5.50
2022-08-02T00:09:26.882Z,5.50
2022-08-02T00:10:26.865Z,5.40
2022-08-02T00:11:26.852Z,5.80
2022-08-02T00:12:26.855Z,5.80
2022-08-02T00:13:26.842Z,5.40
2022-08-02T00:14:26.820Z,5.50
2022-08-02T00:15:26.812Z,6.30
2022-08-02T00:16:37.891Z,4.90
2022-08-02T00:17:26.801Z,5.60
2022-08-02T00:18:26.772Z,5.50
2022-08-02T00:19:26.800Z,6.20
2022-08-02T00:20:26.754Z,5.30
2022-08-02T00:21:26.744Z,5.50
2022-08-02T00:22:26.748Z,5.30
2022-08-02T00:23:26.741Z,5.40
2022-08-02T00:24:30.610Z,5.20
2022-08-02T00:25:26.702Z,4.60
2022-08-02T00:26:26.687Z,5.00
2022-08-02T00:27:26.686Z,4.20
2022-08-02T00:28:27.460Z,4.10
2022-08-02T00:29:26.650Z,4.50
2022-08-02T00:30:26.643Z,4.40
2022-08-02T00:31:26.630Z,4.90
2022-08-02T00:32:26.635Z,4.40
2022-08-02T00:34:28.016Z,4.60
2022-08-02T00:34:32.851Z,4.70
2022-08-02T00:35:26.590Z,4.20
2022-08-02T00:36:26.584Z,4.20
2022-08-02T00:37:26.571Z,4.70
2022-08-02T00:38:26.568Z,4.90
2022-08-02T00:39:35.231Z,4.60
2022-08-02T00:40:26.539Z,4.80
2022-08-02T00:41:26.525Z,4.40
2022-08-02T00:42:26.524Z,4.50
2022-08-02T00:43:26.515Z,5.00
2022-08-02T00:44:26.495Z,4.70
2022-08-02T00:46:02.476Z,4.60
2022-08-02T00:47:35.919Z,4.20
2022-08-02T00:48:36.418Z,4.30
2022-08-02T00:49:36.531Z,4.20
2022-08-02T00:50:36.393Z,4.60
2022-08-02T00:51:36.380Z,4.50
2022-08-02T00:52:36.370Z,4.60
2022-08-02T00:53:36.387Z,4.90
2022-08-02T00:54:36.364Z,4.20
2022-08-02T00:55:36.338Z,4.40
2022-08-02T00:56:36.320Z,4.80
2022-08-02T00:57:36.327Z,4.30
2022-08-02T00:58:36.308Z,4.70
2022-08-02T00:59:36.297Z,4.40
2022-08-02T01:00:36.287Z,4.30
2022-08-02T01:01:36.345Z,4.30
2022-08-02T01:02:36.260Z,4.50
2022-08-02T01:03:36.905Z,4.10
2022-08-02T01:04:36.241Z,4.00
2022-08-02T01:06:02.124Z,4.70
2022-08-02T01:06:36.223Z,4.50
2022-08-02T01:07:36.205Z,4.40
2022-08-02T01:08:36.191Z,4.30
2022-08-02T01:09:36.185Z,4.70
2022-08-02T01:10:36.174Z,4.70
2022-08-02T01:11:36.185Z,4.30
2022-08-02T01:12:36.152Z,4.70
2022-08-02T01:13:36.139Z,5.10
2022-08-02T01:14:36.123Z,4.10
2022-08-02T01:15:36.844Z,5.00
2022-08-02T01:16:36.113Z,5.00
2022-08-02T01:17:36.090Z,4.60
2022-08-02T01:18:36.082Z,4.60
2022-08-02T01:19:36.070Z,4.60
2022-08-02T01:20:36.084Z,5.00
2022-08-02T01:21:36.069Z,5.30
2022-08-02T01:23:00.073Z,4.70
2022-08-02T01:23:36.034Z,5.00
2022-08-02T01:24:36.018Z,4.90
2022-08-02T01:25:36.007Z,4.50
2022-08-02T01:26:36.001Z,4.90
2022-08-02T01:27:35.991Z,4.80
2022-08-02T01:28:35.973Z,5.20
2022-08-02T01:29:35.972Z,5.20
2022-08-02T01:30:35.948Z,5.50
2022-08-02T01:31:35.938Z,5.20
2022-08-02T01:32:35.944Z,5.20
2022-08-02T01:33:35.916Z,5.00
2022-08-02T01:34:35.927Z,5.10
2022-08-02T01:35:47.161Z,5.00
2022-08-02T01:36:35.884Z,4.70
2022-08-02T01:37:35.886Z,4.70
2022-08-02T01:38:35.873Z,5.30
2022-08-02T01:39:35.850Z,5.00
2022-08-02T01:40:35.859Z,5.30
2022-08-02T01:41:35.856Z,5.40
2022-08-02T01:42:35.831Z,5.60
2022-08-02T01:43:35.821Z,5.20
2022-08-02T01:44:35.801Z,5.80
2022-08-02T01:45:35.788Z,5.90
2022-08-02T01:46:35.773Z,5.30
2022-08-02T01:47:35.759Z,5.70
2022-08-02T01:48:35.761Z,5.40
2022-08-02T01:49:35.857Z,5.20
2022-08-02T01:50:35.730Z,5.50
2022-08-02T01:51:35.718Z,5.70
2022-08-02T01:52:35.716Z,6.00
2022-08-02T01:53:35.705Z,5.90
2022-08-02T01:54:35.680Z,5.80
2022-08-02T01:55:57.640Z,6.30
2022-08-02T01:56:35.681Z,5.90
2022-08-02T01:57:41.942Z,6.10
2022-08-02T01:58:35.651Z,5.90
2022-08-02T01:59:35.634Z,6.60
2022-08-02T02:00:35.618Z,6.80
2022-08-02T02:01:35.656Z,6.40
2022-08-02T02:02:35.604Z,6.80
2022-08-02T02:03:35.600Z,6.10
2022-08-02T02:04:35.575Z,6.10
2022-08-02T02:05:35.569Z,6.60
2022-08-02T02:06:35.562Z,5.90
2022-08-02T02:07:35.547Z,6.60
2022-08-02T02:08:35.548Z,6.50
2022-08-02T02:09:35.518Z,6.70
2022-08-02T02:10:35.500Z,6.40
2022-08-02T02:12:11.940Z,6.70
2022-08-02T02:12:35.493Z,6.70
2022-08-02T02:13:35.479Z,6.50
2022-08-02T02:14:35.474Z,6.60
2022-08-02T02:15:35.463Z,6.50
2022-08-02T02:16:35.460Z,6.50
2022-08-02T02:18:11.981Z,6.50
2022-08-02T02:18:35.930Z,6.30
2022-08-02T02:19:35.424Z,6.50
2022-08-02T02:20:35.447Z,6.40
2022-08-02T02:21:35.940Z,6.40
2022-08-02T02:22:35.928Z,6.70
2022-08-02T02:23:35.932Z,7.50
2022-08-02T02:24:35.417Z,7.20
2022-08-02T02:25:36.464Z,8.50
2022-08-02T02:26:35.331Z,8.50
2022-08-02T02:27:37.090Z,7.80
2022-08-02T02:28:35.325Z,7.20
2022-08-02T02:29:35.304Z,7.10
2022-08-02T02:30:35.284Z,7.60
2022-08-02T02:31:35.276Z,7.00
2022-08-02T02:32:35.923Z,7.20
2022-08-02T02:33:35.243Z,7.30
2022-08-02T02:34:35.245Z,6.90
2022-08-02T02:35:35.222Z,6.50
2022-08-02T02:36:35.214Z,6.60
2022-08-02T02:37:35.200Z,6.90
2022-08-02T02:38:35.189Z,6.90
2022-08-02T02:39:35.199Z,6.80
2022-08-02T02:40:35.168Z,6.50
2022-08-02T02:41:35.155Z,6.90
2022-08-02T02:42:35.145Z,6.50
2022-08-02T02:43:35.143Z,6.30
2022-08-02T02:44:35.128Z,6.10
2022-08-02T02:45:35.105Z,6.10
2022-08-02T02:46:35.098Z,6.40
2022-08-02T02:48:44.054Z,6.40
2022-08-02T02:49:45.080Z,6.50
2022-08-02T02:50:45.030Z,6.70
2022-08-02T02:51:45.008Z,6.30
2022-08-02T02:52:45.002Z,6.20
2022-08-02T02:54:32.064Z,6.60
2022-08-02T02:54:44.983Z,6.60
2022-08-02T02:56:02.394Z,6.80
2022-08-02T02:56:44.954Z,5.70
2022-08-02T02:57:44.940Z,6.40
2022-08-02T02:58:44.929Z,6.50
2022-08-02T02:59:49.620Z,6.60
2022-08-02T03:00:44.981Z,6.40
2022-08-02T03:01:56.941Z,6.10
2022-08-02T03:02:44.893Z,6.50
2022-08-02T03:03:44.874Z,5.90
2022-08-02T03:04:57.113Z,6.10
2022-08-02T03:05:44.868Z,6.00
2022-08-02T03:06:44.852Z,5.90
2022-08-02T03:07:44.839Z,5.90
2022-08-02T03:08:44.831Z,6.20
2022-08-02T03:09:44.814Z,6.30
2022-08-02T03:10:44.814Z,6.10
2022-08-02T03:11:44.798Z,6.80
2022-08-02T03:12:44.789Z,6.20
2022-08-02T03:13:45.526Z,6.70
2022-08-02T03:14:44.766Z,6.70
2022-08-02T03:15:44.761Z,6.50
2022-08-02T03:16:44.739Z,6.90
2022-08-02T03:17:44.730Z,6.90
2022-08-02T03:18:44.719Z,6.80
2022-08-02T03:19:44.700Z,6.50
2022-08-02T03:20:44.707Z,6.80
2022-08-02T03:21:44.682Z,6.80
2022-08-02T03:22:44.668Z,6.60
2022-08-02T03:23:44.661Z,6.80
2022-08-02T03:24:44.673Z,6.90
2022-08-02T03:25:44.652Z,6.50
2022-08-02T03:26:44.634Z,6.90
2022-08-02T03:27:44.632Z,6.70
2022-08-02T03:28:44.623Z,6.80
2022-08-02T03:29:44.591Z,7.20
2022-08-02T03:30:44.593Z,6.90
2022-08-02T03:31:44.572Z,7.90
2022-08-02T03:32:44.561Z,8.00
2022-08-02T03:33:44.552Z,8.20
2022-08-02T03:34:44.539Z,8.70
2022-08-02T03:35:44.538Z,8.20
2022-08-02T03:36:44.529Z,8.70
2022-08-02T03:37:44.505Z,8.10
2022-08-02T03:38:44.494Z,8.20
2022-08-02T03:39:51.852Z,8.70
2022-08-02T03:40:44.470Z,8.80
2022-08-02T03:41:44.475Z,8.60
2022-08-02T03:42:44.453Z,7.90
2022-08-02T03:43:44.441Z,7.90
2022-08-02T03:44:44.434Z,7.40
2022-08-02T03:45:44.418Z,7.70
2022-08-02T03:46:44.421Z,8.20
2022-08-02T03:47:44.407Z,8.20
2022-08-02T03:48:44.384Z,7.90
2022-08-02T03:49:44.377Z,8.60
2022-08-02T03:50:44.378Z,8.70
2022-08-02T03:51:44.354Z,9.20
2022-08-02T03:52:44.356Z,8.40
2022-08-02T03:53:44.325Z,8.30
2022-08-02T03:54:45.668Z,7.80
2022-08-02T03:55:44.339Z,8.30
2022-08-02T03:56:44.293Z,8.60
2022-08-02T03:57:44.309Z,9.10
2022-08-02T03:58:48.606Z,9.40
2022-08-02T03:59:44.269Z,10.40
2022-08-02T04:00:44.321Z,10.30
2022-08-02T04:01:44.245Z,10.30
2022-08-02T04:02:44.259Z,10.40
2022-08-02T04:03:44.228Z,11.10
2022-08-02T04:04:44.210Z,10.70
2022-08-02T04:06:01.094Z,11.90
2022-08-02T04:06:44.188Z,11.60
2022-08-02T04:08:33.043Z,11.10
2022-08-02T04:08:44.164Z,13.20
2022-08-02T04:09:44.151Z,13.70
2022-08-02T04:10:44.169Z,13.00
2022-08-02T04:11:44.133Z,14.80
2022-08-02T04:12:44.134Z,13.30
2022-08-02T04:13:44.120Z,13.40
2022-08-02T04:14:44.102Z,13.70
2022-08-02T04:15:44.099Z,14.40
2022-08-02T04:16:44.075Z,15.20
2022-08-02T04:17:44.063Z,15.80
2022-08-02T04:18:44.067Z,13.90
2022-08-02T04:19:44.203Z,15.50
2022-08-02T04:20:44.051Z,15.40
2022-08-02T04:21:51.154Z,16.00
2022-08-02T04:22:44.014Z,14.20
2022-08-02T04:23:44.019Z,15.00
2022-08-02T04:24:43.996Z,14.20
2022-08-02T04:25:43.983Z,15.40
2022-08-02T04:26:43.984Z,15.40
2022-08-02T04:27:50.701Z,14.30
2022-08-02T04:28:43.957Z,13.80
2022-08-02T04:29:46.850Z,15.70
2022-08-02T04:30:43.938Z,14.40
2022-08-02T04:31:43.946Z,14.40
2022-08-02T04:32:43.919Z,13.40
2022-08-02T04:33:43.904Z,15.20
2022-08-02T04:34:54.182Z,13.60
2022-08-02T04:35:43.876Z,14.30
2022-08-02T04:36:43.861Z,14.40
2022-08-02T04:38:09.136Z,15.10
2022-08-02T04:38:43.842Z,15.80
2022-08-02T04:39:43.823Z,15.00
2022-08-02T04:40:43.816Z,16.30
2022-08-02T04:41:44.454Z,17.60
2022-08-02T04:42:43.804Z,14.30
2022-08-02T04:43:43.792Z,14.20
2022-08-02T04:44:43.770Z,14.40
2022-08-02T04:45:43.777Z,14.70
2022-08-02T04:46:43.760Z,14.40
2022-08-02T04:48:01.369Z,14.70
2022-08-02T04:49:52.699Z,12.40
2022-08-02T04:51:53.586Z,13.90
2022-08-02T04:51:53.699Z,15.10
2022-08-02T04:52:53.657Z,15.00
2022-08-02T04:53:53.658Z,15.00
2022-08-02T04:54:53.635Z,14.20
2022-08-02T04:55:53.628Z,15.10
2022-08-02T04:56:53.613Z,15.60
2022-08-02T04:57:53.611Z,14.90
2022-08-02T04:58:53.608Z,14.90
2022-08-02T04:59:54.732Z,13.60
2022-08-02T05:00:53.624Z,15.20
2022-08-02T05:01:53.559Z,14.50
2022-08-02T05:02:53.548Z,14.20
2022-08-02T05:03:53.555Z,18.00
2022-08-02T05:04:53.555Z,17.30
2022-08-02T05:05:53.521Z,14.60
2022-08-02T05:06:53.514Z,15.90
2022-08-02T05:07:53.501Z,14.90
2022-08-02T05:08:53.902Z,14.60
2022-08-02T05:09:53.489Z,14.90
2022-08-02T05:10:53.466Z,14.90
2022-08-02T05:11:55.050Z,13.70
2022-08-02T05:12:53.440Z,14.10
2022-08-02T05:13:57.624Z,16.30
2022-08-02T05:14:53.447Z,14.60
2022-08-02T05:15:53.426Z,14.70
2022-08-02T05:16:53.410Z,14.30
2022-08-02T05:17:53.393Z,14.20
2022-08-02T05:18:53.393Z,14.70
2022-08-02T05:19:53.378Z,14.50
2022-08-02T05:20:58.053Z,14.40
2022-08-02T05:21:53.344Z,13.70
2022-08-02T05:22:53.347Z,14.80
2022-08-02T05:23:53.335Z,14.90
2022-08-02T05:24:53.319Z,13.80
2022-08-02T05:25:53.308Z,14.60
2022-08-02T05:26:53.312Z,13.70
2022-08-02T05:27:53.292Z,14.50
2022-08-02T05:28:53.277Z,14.80
2022-08-02T05:29:54.201Z,15.70
2022-08-02T05:30:53.249Z,14.10
2022-08-02T05:31:53.230Z,14.30
2022-08-02T05:32:53.258Z,13.10
2022-08-02T05:33:53.222Z,14.00
2022-08-02T05:34:53.202Z,15.50
2022-08-02T05:35:53.192Z,13.80
2022-08-02T05:36:53.179Z,13.10
2022-08-02T05:37:53.179Z,14.00
2022-08-02T05:38:53.175Z,12.60
2022-08-02T05:39:55.968Z,13.60
2022-08-02T05:40:54.966Z,13.80
2022-08-02T05:41:53.129Z,12.90
2022-08-02T05:42:53.117Z,12.80
2022-08-02T05:43:53.119Z,12.70
2022-08-02T05:44:53.098Z,13.00
2022-08-02T05:45:53.092Z,12.40
2022-08-02T05:46:53.066Z,12.70
2022-08-02T05:47:53.061Z,12.30
2022-08-02T05:48:53.118Z,12.50
2022-08-02T05:49:53.053Z,12.30
2022-08-02T05:50:53.023Z,11.90
2022-08-02T05:51:53.015Z,11.70
2022-08-02T05:52:53.002Z,11.50
2022-08-02T05:53:52.992Z,12.00
2022-08-02T05:54:53.007Z,11.90
2022-08-02T05:55:52.980Z,12.30
2022-08-02T05:56:52.960Z,11.70
2022-08-02T05:57:52.944Z,12.20
2022-08-02T05:58:52.933Z,12.70
2022-08-02T05:59:52.925Z,11.70
2022-08-02T06:00:52.935Z,11.50
2022-08-02T06:01:52.952Z,11.80
2022-08-02T06:02:52.900Z,11.20
2022-08-02T06:03:52.878Z,12.20
2022-08-02T06:04:53.001Z,11.10
2022-08-02T06:05:52.870Z,11.60
2022-08-02T06:06:52.853Z,11.70
2022-08-02T06:07:52.849Z,11.60
2022-08-02T06:08:52.822Z,11.90
2022-08-02T06:09:52.811Z,12.40
2022-08-02T06:10:52.829Z,12.70
2022-08-02T06:12:01.685Z,12.30
2022-08-02T06:12:52.795Z,12.80
2022-08-02T06:13:52.781Z,11.70
2022-08-02T06:14:54.573Z,12.50
2022-08-02T06:15:53.924Z,12.30
2022-08-02T06:16:52.742Z,12.40
2022-08-02T06:17:52.729Z,11.50
2022-08-02T06:18:52.721Z,11.70
2022-08-02T06:19:52.905Z,11.30
2022-08-02T06:20:52.708Z,12.00
2022-08-02T06:22:31.366Z,11.70
2022-08-02T06:22:52.681Z,11.90
2022-08-02T06:23:57.992Z,11.60
2022-08-02T06:24:52.657Z,11.20
2022-08-02T06:25:52.655Z,11.20
2022-08-02T06:26:52.907Z,11.30
2022-08-02T06:27:52.618Z,11.20
2022-08-02T06:28:52.611Z,11.10
2022-08-02T06:29:52.609Z,10.90
2022-08-02T06:30:52.584Z,10.20
2022-08-02T06:31:52.592Z,10.50
2022-08-02T06:32:52.566Z,10.60
2022-08-02T06:33:52.557Z,10.70
2022-08-02T06:34:52.542Z,9.80
2022-08-02T06:35:52.536Z,10.00
2022-08-02T06:36:52.534Z,10.20
2022-08-02T06:37:55.665Z,9.70
2022-08-02T06:38:52.504Z,10.20
2022-08-02T06:39:52.496Z,9.60
2022-08-02T06:40:52.487Z,9.70
2022-08-02T06:41:52.482Z,10.00
2022-08-02T06:42:52.474Z,9.60
2022-08-02T06:43:52.443Z,9.60
2022-08-02T06:44:57.008Z,9.20
2022-08-02T06:45:52.422Z,9.40
2022-08-02T06:47:11.162Z,9.50
2022-08-02T06:47:52.401Z,9.40
2022-08-02T06:48:52.491Z,9.00
2022-08-02T06:51:01.351Z,9.20
2022-08-02T06:52:02.338Z,9.80
2022-08-02T06:53:02.356Z,9.30
2022-08-02T06:54:02.312Z,9.90
2022-08-02T06:55:02.470Z,10.10
2022-08-02T06:56:02.287Z,9.50
2022-08-02T06:57:02.291Z,9.00
2022-08-02T06:58:02.281Z,8.70
2022-08-02T06:59:05.927Z,9.30
2022-08-02T07:00:02.246Z,9.60
2022-08-02T07:01:02.231Z,9.50
2022-08-02T07:02:02.270Z,9.10
2022-08-02T07:03:02.255Z,8.90
2022-08-02T07:04:02.206Z,8.70
2022-08-02T07:05:02.190Z,8.30
2022-08-02T07:06:02.172Z,8.30
2022-08-02T07:07:02.163Z,9.40
2022-08-02T07:08:02.170Z,8.40
2022-08-02T07:09:20.076Z,8.90
2022-08-02T07:10:02.175Z,8.70
2022-08-02T07:11:02.158Z,8.60
2022-08-02T07:12:02.109Z,8.00
2022-08-02T07:13:02.129Z,7.80
2022-08-02T07:14:02.128Z,7.80
2022-08-02T07:15:02.087Z,7.80
2022-08-02T07:16:02.091Z,8.00
2022-08-02T07:17:02.064Z,8.60
2022-08-02T07:18:02.060Z,8.10
2022-08-02T07:19:02.057Z,7.90
2022-08-02T07:20:02.072Z,8.00
2022-08-02T07:21:02.007Z,7.70
2022-08-02T07:22:02.139Z,8.30
2022-08-02T07:23:01.993Z,8.30
2022-08-02T07:24:01.993Z,8.40
2022-08-02T07:25:01.991Z,8.10
2022-08-02T07:26:05.384Z,8.50
2022-08-02T07:27:11.340Z,8.60
2022-08-02T07:28:01.939Z,8.40
2022-08-02T07:29:01.923Z,8.10
2022-08-02T07:30:01.932Z,8.00
2022-08-02T07:31:01.913Z,7.70
2022-08-02T07:32:01.894Z,7.70
2022-08-02T07:33:01.875Z,8.10
2022-08-02T07:34:01.869Z,7.50
2022-08-02T07:35:06.462Z,8.10
2022-08-02T07:36:01.846Z,8.30
2022-08-02T07:37:01.831Z,7.40
2022-08-02T07:38:02.268Z,7.10
2022-08-02T07:39:01.813Z,7.80
2022-08-02T07:40:02.867Z,7.50
2022-08-02T07:41:01.786Z,7.30
2022-08-02T07:42:01.790Z,7.50
2022-08-02T07:43:04.199Z,7.20
2022-08-02T07:44:01.760Z,7.40
2022-08-02T07:45:01.769Z,7.80
2022-08-02T07:46:01.760Z,7.40
2022-08-02T07:47:01.723Z,6.80
2022-08-02T07:48:01.716Z,7.60
2022-08-02T07:49:01.784Z,6.90
2022-08-02T07:50:01.703Z,6.40
2022-08-02T07:51:01.699Z,6.70
2022-08-02T07:52:01.680Z,6.10
2022-08-02T07:53:01.664Z,6.10
2022-08-02T07:54:02.737Z,6.20
2022-08-02T07:55:01.643Z,5.50
2022-08-02T07:56:01.645Z,5.60
2022-08-02T07:57:01.611Z,5.80
2022-08-02T07:58:01.599Z,6.20
2022-08-02T07:59:01.591Z,6.20
2022-08-02T08:00:01.590Z,5.80
2022-08-02T08:01:01.623Z,5.60
2022-08-02T08:02:01.671Z,5.40
2022-08-02T08:03:01.548Z,5.10
2022-08-02T08:04:01.532Z,5.40
2022-08-02T08:05:01.530Z,5.60
2022-08-02T08:06:01.528Z,5.20
2022-08-02T08:07:01.525Z,5.50
2022-08-02T08:08:01.511Z,5.60
2022-08-02T08:09:01.482Z,5.80
2022-08-02T08:10:01.480Z,5.40
2022-08-02T08:11:01.466Z,5.70
2022-08-02T08:12:01.454Z,5.60
2022-08-02T08:13:01.458Z,5.80
2022-08-02T08:14:01.457Z,5.60
2022-08-02T08:15:01.414Z,5.50
2022-08-02T08:16:01.406Z,5.90
2022-08-02T08:17:02.335Z,4.90
2022-08-02T08:18:01.384Z,5.30
2022-08-02T08:19:01.381Z,5.10
2022-08-02T08:20:01.371Z,5.50
2022-08-02T08:21:01.351Z,5.60
2022-08-02T08:22:01.342Z,5.60
2022-08-02T08:23:01.329Z,5.10
2022-08-02T08:24:01.314Z,4.90
2022-08-02T08:25:01.321Z,4.90
2022-08-02T08:26:01.333Z,5.80
2022-08-02T08:27:01.285Z,5.00
2022-08-02T08:28:01.306Z,5.40
2022-08-02T08:29:01.264Z,5.80
2022-08-02T08:30:01.261Z,5.40
2022-08-02T08:31:01.239Z,5.30
2022-08-02T08:32:01.232Z,5.30
2022-08-02T08:33:01.253Z,5.10
2022-08-02T08:34:01.205Z,5.30
2022-08-02T08:35:01.208Z,5.40
2022-08-02T08:36:02.499Z,4.90
2022-08-02T08:37:01.188Z,4.90
2022-08-02T08:38:05.597Z,5.20
2022-08-02T08:39:01.151Z,5.40
2022-08-02T08:40:01.139Z,4.70
2022-08-02T08:41:01.153Z,4.80
2022-08-02T08:42:01.133Z,4.40
2022-08-02T08:43:01.124Z,4.50
2022-08-02T08:44:01.104Z,4.10
2022-08-02T08:45:01.237Z,3.80
2022-08-02T08:46:01.090Z,4.40
2022-08-02T08:47:01.112Z,4.30
2022-08-02T08:48:01.079Z,3.90
2022-08-02T08:49:01.098Z,3.40
2022-08-02T08:50:01.038Z,4.30
2022-08-02T08:52:11.802Z,3.10
2022-08-02T08:53:12.159Z,3.90
2022-08-02T08:54:10.952Z,4.20
2022-08-02T08:55:10.954Z,4.00
2022-08-02T08:56:15.761Z,4.50
2022-08-02T08:57:10.944Z,3.80
2022-08-02T08:58:10.934Z,3.90
2022-08-02T08:59:10.902Z,3.50
2022-08-02T09:00:10.914Z,3.50
2022-08-02T09:01:10.971Z,3.70
2022-08-02T09:02:20.450Z,3.60
2022-08-02T09:03:10.865Z,2.90
2022-08-02T09:04:10.853Z,3.60
2022-08-02T09:05:10.851Z,3.90
2022-08-02T09:06:10.819Z,3.90
2022-08-02T09:07:10.810Z,3.70
2022-08-02T09:08:14.932Z,3.70
2022-08-02T09:09:10.796Z,3.70
2022-08-02T09:10:10.792Z,3.40
2022-08-02T09:11:10.785Z,4.30
2022-08-02T09:12:11.174Z,3.90
2022-08-02T09:13:39.098Z,4.10
2022-08-02T09:14:10.748Z,3.80
2022-08-02T09:15:15.639Z,3.60
2022-08-02T09:16:11.717Z,3.60
2022-08-02T09:17:10.707Z,4.10
2022-08-02T09:18:10.710Z,3.60
2022-08-02T09:19:10.681Z,4.10
2022-08-02T09:20:10.669Z,3.60
2022-08-02T09:21:10.678Z,3.30
2022-08-02T09:22:11.075Z,3.50
2022-08-02T09:23:10.642Z,3.90
2022-08-02T09:24:10.629Z,4.00
2022-08-02T09:25:10.626Z,3.30
2022-08-02T09:26:10.627Z,3.40
2022-08-02T09:27:10.606Z,3.30
2022-08-02T09:28:10.588Z,3.30
2022-08-02T09:29:10.605Z,3.30
2022-08-02T09:30:13.559Z,3.90
2022-08-02T09:31:10.570Z,3.50
2022-08-02T09:32:10.883Z,3.00
2022-08-02T09:33:10.555Z,3.40
2022-08-02T09:34:10.518Z,3.10
2022-08-02T09:35:10.516Z,3.90
2022-08-02T09:36:10.497Z,3.10
2022-08-02T09:37:10.539Z,3.10
2022-08-02T09:38:10.497Z,2.90
2022-08-02T09:39:10.513Z,3.30
2022-08-02T09:40:10.465Z,3.00
2022-08-02T09:41:10.449Z,2.80
2022-08-02T09:42:11.045Z,2.50
2022-08-02T09:43:10.460Z,2.80
2022-08-02T09:44:14.106Z,2.70
2022-08-02T09:45:10.437Z,2.60
2022-08-02T09:46:10.391Z,2.50
2022-08-02T09:47:10.387Z,2.60
2022-08-02T09:48:10.387Z,2.50
2022-08-02T09:49:10.569Z,2.80
2022-08-02T09:50:14.708Z,2.70
2022-08-02T09:51:10.347Z,2.80
2022-08-02T09:52:10.720Z,2.60
2022-08-02T09:53:10.329Z,2.70
2022-08-02T09:54:10.318Z,2.30
2022-08-02T09:55:10.308Z,2.70
2022-08-02T09:56:35.306Z,2.30
2022-08-02T09:57:10.274Z,2.40
2022-08-02T09:58:10.269Z,2.20
2022-08-02T09:59:10.272Z,2.60
2022-08-02T10:00:14.103Z,2.00
2022-08-02T10:01:10.272Z,1.90
2022-08-02T10:02:16.914Z,1.90
2022-08-02T10:03:11.085Z,1.80
2022-08-02T10:04:13.474Z,2.30
2022-08-02T10:05:10.195Z,2.30
2022-08-02T10:06:10.184Z,2.80
2022-08-02T10:07:10.176Z,2.70
2022-08-02T10:08:10.175Z,2.30
2022-08-02T10:09:10.162Z,2.30
2022-08-02T10:10:10.152Z,2.30
2022-08-02T10:11:10.125Z,2.30
2022-08-02T10:12:10.370Z,2.30
2022-08-02T10:13:10.117Z,2.40
2022-08-02T10:14:10.126Z,2.10
2022-08-02T10:15:10.087Z,2.10
2022-08-02T10:16:10.082Z,2.00
2022-08-02T10:17:10.094Z,2.30
2022-08-02T10:18:35.885Z,1.90
2022-08-02T10:19:10.049Z,2.10
2022-08-02T10:20:10.043Z,1.90
2022-08-02T10:21:10.032Z,1.70
2022-08-02T10:22:10.405Z,2.00
2022-08-02T10:23:10.025Z,2.00
2022-08-02T10:24:09.990Z,2.30
2022-08-02T10:25:10.022Z,1.90
2022-08-02T10:26:09.970Z,2.00
2022-08-02T10:27:09.968Z,2.30
2022-08-02T10:28:10.677Z,2.10
2022-08-02T10:29:09.943Z,2.10
2022-08-02T10:30:09.964Z,2.50
2022-08-02T10:31:09.927Z,1.70
2022-08-02T10:32:10.275Z,2.00
2022-08-02T10:33:09.899Z,1.90
2022-08-02T10:34:09.880Z,1.90
2022-08-02T10:35:23.223Z,1.70
2022-08-02T10:36:09.866Z,1.70
2022-08-02T10:37:09.848Z,2.00
2022-08-02T10:38:09.838Z,2.20
2022-08-02T10:39:09.835Z,2.00
2022-08-02T10:40:09.834Z,2.00
2022-08-02T10:41:09.831Z,2.00
2022-08-02T10:42:10.144Z,2.00
2022-08-02T10:43:09.797Z,2.10
2022-08-02T10:44:24.726Z,2.00
2022-08-02T10:45:09.795Z,2.10
2022-08-02T10:46:09.768Z,2.10
2022-08-02T10:47:09.745Z,1.70
2022-08-02T10:48:09.734Z,1.80
2022-08-02T10:49:29.666Z,1.60
2022-08-02T10:50:09.824Z,2.10
2022-08-02T10:51:09.719Z,2.10
2022-08-02T10:53:18.859Z,1.80
2022-08-02T10:54:19.850Z,1.70
2022-08-02T10:55:22.411Z,1.90
2022-08-02T10:56:19.849Z,1.60
2022-08-02T10:57:19.843Z,1.80
2022-08-02T10:58:19.811Z,1.80
2022-08-02T10:59:19.795Z,1.90
2022-08-02T11:00:19.794Z,1.90
2022-08-02T11:01:19.830Z,1.70
2022-08-02T11:02:19.770Z,1.70
2022-08-02T11:03:19.787Z,1.70
2022-08-02T11:04:19.745Z,1.70
2022-08-02T11:05:19.734Z,1.80
2022-08-02T11:06:25.098Z,1.50
2022-08-02T11:07:19.711Z,1.90
2022-08-02T11:08:19.702Z,2.10
2022-08-02T11:09:19.701Z,1.70
2022-08-02T11:10:19.684Z,1.70
2022-08-02T11:11:19.682Z,1.80
2022-08-02T11:12:19.690Z,1.70
2022-08-02T11:13:19.721Z,1.70
2022-08-02T11:14:19.633Z,1.80
2022-08-02T11:15:19.638Z,1.70
2022-08-02T11:16:19.623Z,1.60
2022-08-02T11:17:19.614Z,1.60
2022-08-02T11:18:19.598Z,1.80
2022-08-02T11:19:19.590Z,1.90
2022-08-02T11:20:19.574Z,1.80
2022-08-02T11:21:19.558Z,1.80
2022-08-02T11:22:25.187Z,1.50
2022-08-02T11:23:19.540Z,1.70
2022-08-02T11:24:19.526Z,1.80
2022-08-02T11:25:19.522Z,1.70
2022-08-02T11:26:19.519Z,1.60
2022-08-02T11:27:21.865Z,1.80
2022-08-02T11:28:23.045Z,1.70
2022-08-02T11:29:19.480Z,1.40
2022-08-02T11:30:19.463Z,1.50
2022-08-02T11:31:19.473Z,1.60
2022-08-02T11:32:19.458Z,1.60
2022-08-02T11:33:19.492Z,2.00
2022-08-02T11:34:28.915Z,1.80
2022-08-02T11:35:19.417Z,1.60
2022-08-02T11:36:19.483Z,1.80
2022-08-02T11:37:19.431Z,1.50
2022-08-02T11:38:19.394Z,1.70
2022-08-02T11:39:19.380Z,1.80
2022-08-02T11:40:20.206Z,1.80
2022-08-02T11:41:46.022Z,2.00
2022-08-02T11:42:19.358Z,1.70
2022-08-02T11:43:19.377Z,1.70
2022-08-02T11:44:19.321Z,2.10
2022-08-02T11:45:21.089Z,1.60
2022-08-02T11:46:19.318Z,1.60
2022-08-02T11:47:19.300Z,1.60
2022-08-02T11:48:19.310Z,1.70
2022-08-02T11:49:19.327Z,1.90
2022-08-02T11:50:19.260Z,1.70
2022-08-02T11:51:19.257Z,1.90
2022-08-02T11:52:19.242Z,2.00
2022-08-02T11:53:19.241Z,1.60
2022-08-02T11:54:19.220Z,1.90
2022-08-02T11:55:19.225Z,1.90
2022-08-02T11:56:21.842Z,2.10
2022-08-02T11:57:20.627Z,2.00
2022-08-02T11:58:19.200Z,1.80
2022-08-02T11:59:19.163Z,2.10
2022-08-02T12:00:19.167Z,1.80
2022-08-02T12:01:19.196Z,2.30
2022-08-02T12:02:19.144Z,2.20
2022-08-02T12:03:19.866Z,2.20
2022-08-02T12:04:19.277Z,2.00
2022-08-02T12:05:19.110Z,2.10
2022-08-02T12:06:19.089Z,2.10
2022-08-02T12:07:19.092Z,2.00
2022-08-02T12:08:22.065Z,2.20
2022-08-02T12:09:19.461Z,2.00
2022-08-02T12:10:19.510Z,1.90
2022-08-02T12:11:19.064Z,2.10
2022-08-02T12:12:19.031Z,1.90
2022-08-02T12:13:19.039Z,2.30
2022-08-02T12:14:19.026Z,2.20
2022-08-02T12:15:19.004Z,1.80
2022-08-02T12:16:19.006Z,2.20
2022-08-02T12:17:18.992Z,2.10
2022-08-02T12:18:18.976Z,2.00
2022-08-02T12:19:18.974Z,1.80
2022-08-02T12:20:18.950Z,1.90
2022-08-02T12:21:18.935Z,2.10
2022-08-02T12:22:18.923Z,1.90
2022-08-02T12:23:18.936Z,2.00
2022-08-02T12:24:18.900Z,2.20
2022-08-02T12:25:34.415Z,1.80
2022-08-02T12:26:18.910Z,2.00
2022-08-02T12:27:18.873Z,2.00
2022-08-02T12:28:18.861Z,2.40
2022-08-02T12:29:58.594Z,2.10
2022-08-02T12:30:18.848Z,2.30
2022-08-02T12:31:18.844Z,2.30
2022-08-02T12:32:18.876Z,2.20
2022-08-02T12:33:18.837Z,2.50
2022-08-02T12:34:18.820Z,1.70
2022-08-02T12:35:26.708Z,2.10
2022-08-02T12:36:18.802Z,2.20
2022-08-02T12:37:18.768Z,2.20
2022-08-02T12:38:18.773Z,2.00
2022-08-02T12:39:18.761Z,2.30
2022-08-02T12:40:18.745Z,2.20
2022-08-02T12:41:31.707Z,2.30
2022-08-02T12:42:18.715Z,2.20
2022-08-02T12:43:18.708Z,2.10
2022-08-02T12:44:19.668Z,2.30
2022-08-02T12:45:18.683Z,2.50
2022-08-02T12:46:18.691Z,2.10
2022-08-02T12:47:18.666Z,2.30
2022-08-02T12:48:18.659Z,2.10
2022-08-02T12:49:19.245Z,2.10
2022-08-02T12:50:18.653Z,2.00
2022-08-02T12:51:18.642Z,2.10
2022-08-02T12:52:18.629Z,1.90
2022-08-02T12:54:31.082Z,1.80
2022-08-02T12:55:59.296Z,1.90
2022-08-02T12:56:28.552Z,2.20
2022-08-02T12:57:28.579Z,1.90
2022-08-02T12:58:28.533Z,2.00
2022-08-02T12:59:28.509Z,1.90
2022-08-02T13:00:28.503Z,2.30
2022-08-02T13:01:28.595Z,2.10
2022-08-02T13:02:28.495Z,1.70
2022-08-02T13:04:10.962Z,1.90
2022-08-02T13:04:28.473Z,2.00
2022-08-02T13:05:28.450Z,2.20
2022-08-02T13:06:39.811Z,2.30
2022-08-02T13:07:28.448Z,1.90
2022-08-02T13:08:28.421Z,1.90
2022-08-02T13:09:29.471Z,2.00
2022-08-02T13:10:28.415Z,2.00
2022-08-02T13:11:28.396Z,1.80
2022-08-02T13:12:28.381Z,1.90
2022-08-02T13:13:28.368Z,2.10
2022-08-02T13:14:28.380Z,2.10
2022-08-02T13:15:50.118Z,2.00
2022-08-02T13:16:30.763Z,2.10
2022-08-02T13:17:28.353Z,2.00
2022-08-02T13:18:30.307Z,2.10
2022-08-02T13:19:28.313Z,1.90
2022-08-02T13:20:28.294Z,1.90
2022-08-02T13:21:40.686Z,2.00